Time;durP1;ratioP1;P1;durP2;ratioP2;P2;SDS_P1;SDS_P2;PMS_P1;PMS_P2;Temp;Humidity;BMP_temperature;BMP_pressure;BME280_temperature;BME280_humidity;BME280_pressure;Samples;Min_cycle;Max_cycle;Signal;HPM_P1;HPM_P2
2022/06/09 00:00:39;;;;;;;9.60;7.00;;;14.70;97.00;;;;;;5094215;27;20065;-87
2022/06/09 00:03:25;;;;;;;9.50;6.72;;;14.60;97.10;;;;;;5108198;28;20024;-87
2022/06/09 00:05:51;;;;;;;10.13;6.20;;;14.60;97.00;;;;;;5079215;28;20023;-87
2022/06/09 00:08:19;;;;;;;8.75;6.45;;;14.60;97.10;;;;;;5095089;28;20033;-87
2022/06/09 00:10:53;;;;;;;10.60;5.72;;;14.60;96.90;;;;;;5092322;28;20047;-87
2022/06/09 00:13:19;;;;;;;7.13;5.75;;;14.60;97.00;;;;;;5091591;28;20020;-87
2022/06/09 00:15:44;;;;;;;9.23;6.00;;;14.60;97.00;;;;;;5092457;28;20028;-87
2022/06/09 00:18:10;;;;;;;10.45;6.20;;;14.70;97.10;;;;;;5107909;27;20045;-87
2022/06/09 00:20:36;;;;;;;8.02;5.65;;;14.60;96.80;;;;;;5091765;28;20081;-87
2022/06/09 00:23:01;;;;;;;9.23;6.68;;;14.60;96.80;;;;;;5093533;28;20027;-87
2022/06/09 00:25:27;;;;;;;10.48;7.43;;;14.60;96.90;;;;;;5090303;28;20032;-87
2022/06/09 00:27:53;;;;;;;8.43;6.00;;;14.60;96.90;;;;;;5081171;28;20039;-86
2022/06/09 00:30:19;;;;;;;10.10;6.53;;;14.60;96.80;;;;;;5093195;28;20020;-87
2022/06/09 00:32:45;;;;;;;9.20;6.40;;;14.60;96.80;;;;;;5089016;28;20057;-86
2022/06/09 00:35:11;;;;;;;8.23;5.72;;;14.60;96.90;;;;;;5093477;28;20049;-86
2022/06/09 00:37:37;;;;;;;10.10;6.78;;;14.60;96.70;;;;;;5092490;28;20156;-86
2022/06/09 00:40:08;;;;;;;10.85;6.05;;;14.60;96.80;;;;;;5108221;28;20379;-87
2022/06/09 00:42:34;;;;;;;;;;;14.50;96.90;;;;;;5092710;28;20502;-87
2022/06/09 00:45:29;;;;;;;11.48;6.40;;;14.50;97.10;;;;;;5094200;28;19907;-87
2022/06/09 00:48:27;;;;;;;8.15;6.63;;;14.50;97.00;;;;;;5088476;28;20023;-86
2022/06/09 00:51:04;;;;;;;10.82;6.82;;;14.50;97.10;;;;;;5083864;28;20027;-87
2022/06/09 00:53:34;;;;;;;10.65;6.60;;;14.50;97.20;;;;;;5095126;28;20020;-87
2022/06/09 00:56:02;;;;;;;9.37;5.90;;;14.50;97.20;;;;;;5085331;28;20032;-87
2022/06/09 00:58:33;;;;;;;9.30;6.30;;;14.40;97.20;;;;;;5086510;28;20055;-87
2022/06/09 01:01:01;;;;;;;;;;;14.40;97.20;;;;;;5084508;28;20032;-87
2022/06/09 01:03:33;;;;;;;9.93;5.95;;;14.40;97.20;;;;;;5092003;28;20011;-87
2022/06/09 01:06:06;;;;;;;10.82;5.97;;;14.30;97.20;;;;;;5088515;28;20606;-87
2022/06/09 01:08:35;;;;;;;11.25;6.18;;;14.30;97.20;;;;;;5086678;28;20025;-87
2022/06/09 01:11:01;;;;;;;9.48;6.47;;;14.20;97.20;;;;;;5083552;28;20055;-87
2022/06/09 01:13:27;;;;;;;9.70;5.28;;;14.10;97.20;;;;;;5087595;28;20491;-87
2022/06/09 01:16:08;;;;;;;8.77;5.70;;;14.10;97.20;;;;;;5090972;28;20026;-87
2022/06/09 01:18:40;;;;;;;;;;;14.00;97.20;;;;;;5085580;27;20043;-87
2022/06/09 01:21:14;;;;;;;8.07;5.47;;;14.00;97.30;;;;;;5108451;28;19960;-87
2022/06/09 01:24:12;;;;;;;9.68;5.55;;;14.00;97.40;;;;;;5080556;28;20035;-87
2022/06/09 01:26:56;;;;;;;9.00;5.88;;;14.00;97.30;;;;;;5089204;28;20031;-87
2022/06/09 01:29:38;;;;;;;6.93;5.55;;;14.00;97.40;;;;;;5092718;28;20027;-87
2022/06/09 01:32:33;;;;;;;7.75;5.93;;;13.90;97.40;;;;;;5088206;28;20055;-87
2022/06/09 01:35:08;;;;;;;10.15;5.20;;;13.90;97.40;;;;;;5089668;28;20394;-87
2022/06/09 01:37:40;;;;;;;9.85;5.90;;;13.80;97.40;;;;;;5096522;28;20449;-87
2022/06/09 01:40:08;;;;;;;8.95;5.82;;;13.90;97.60;;;;;;5088882;28;20487;-87
2022/06/09 01:42:35;;;;;;;12.38;6.00;;;13.90;97.50;;;;;;5087798;28;20478;-87
2022/06/09 01:45:33;;;;;;;8.63;5.88;;;13.90;97.60;;;;;;5106014;28;20034;-87
2022/06/09 01:48:15;;;;;;;10.63;5.45;;;13.90;97.70;;;;;;5062536;28;20128;-87
2022/06/09 01:51:00;;;;;;;8.05;4.57;;;14.00;97.60;;;;;;5086839;28;20020;-87
2022/06/09 01:53:33;;;;;;;9.75;4.53;;;13.90;97.50;;;;;;5089251;28;20032;-87
2022/06/09 01:56:25;;;;;;;7.97;5.35;;;14.00;97.60;;;;;;5087666;28;20031;-87
2022/06/09 01:58:58;;;;;;;8.65;5.13;;;14.00;97.50;;;;;;5091338;28;20031;-87
2022/06/09 02:01:32;;;;;;;10.15;5.32;;;14.00;97.60;;;;;;5087032;28;20027;-87
2022/06/09 02:04:03;;;;;;;8.40;5.05;;;14.00;97.50;;;;;;5105621;28;20020;-87
2022/06/09 02:06:31;;;;;;;9.00;5.75;;;14.00;97.50;;;;;;5104736;28;20040;-87
2022/06/09 02:08:56;;;;;;;9.65;5.35;;;14.00;97.50;;;;;;5085856;28;20027;-87
2022/06/09 02:11:22;;;;;;;10.07;5.72;;;14.00;97.60;;;;;;5112251;27;20474;-87
2022/06/09 02:13:50;;;;;;;10.45;5.88;;;14.00;97.50;;;;;;5092550;28;20054;-87
2022/06/09 02:16:20;;;;;;;9.90;5.88;;;14.00;97.50;;;;;;5095826;28;20484;-87
2022/06/09 02:18:49;;;;;;;9.02;5.30;;;14.00;97.50;;;;;;5106463;27;20186;-86
2022/06/09 02:21:31;;;;;;;9.13;5.65;;;13.90;97.60;;;;;;5090899;28;20083;-87
2022/06/09 02:23:57;;;;;;;10.40;6.25;;;13.80;97.60;;;;;;5089507;28;20032;-87
2022/06/09 02:26:23;;;;;;;9.10;5.80;;;13.80;97.70;;;;;;5107411;27;20028;-86
2022/06/09 02:28:49;;;;;;;10.40;6.85;;;13.80;97.80;;;;;;5096890;28;20030;-86
2022/06/09 02:31:17;;;;;;;8.43;6.30;;;13.80;97.90;;;;;;5092927;28;20019;-86
2022/06/09 02:33:42;;;;;;;9.02;6.65;;;13.80;97.90;;;;;;5091199;27;20620;-86
2022/06/09 02:36:08;;;;;;;12.40;7.38;;;13.90;98.00;;;;;;5094873;28;20551;-86
2022/06/09 02:38:34;;;;;;;11.70;7.68;;;13.80;97.90;;;;;;5096646;28;20030;-86
2022/06/09 02:40:59;;;;;;;12.98;8.23;;;13.90;97.90;;;;;;5088907;28;20035;-86
2022/06/09 02:43:25;;;;;;;12.40;8.73;;;13.80;98.00;;;;;;5096377;27;20055;-86
2022/06/09 02:45:51;;;;;;;12.90;8.60;;;13.90;98.10;;;;;;5103345;27;20536;-86
2022/06/09 02:48:18;;;;;;;15.25;9.00;;;14.00;98.10;;;;;;5093671;28;20036;-86
2022/06/09 02:50:46;;;;;;;15.25;9.48;;;14.00;98.10;;;;;;5088599;27;20090;-87
2022/06/09 02:53:11;;;;;;;14.82;9.57;;;14.00;98.10;;;;;;5090355;28;20105;-86
2022/06/09 02:55:37;;;;;;;15.52;9.50;;;14.00;98.20;;;;;;5089342;28;20036;-86
2022/06/09 02:58:03;;;;;;;16.65;10.25;;;14.00;98.10;;;;;;5091010;28;20152;-86
2022/06/09 03:00:28;;;;;;;14.80;10.10;;;14.00;98.10;;;;;;5076922;27;20111;-86
2022/06/09 03:03:03;;;;;;;15.18;10.30;;;14.10;98.20;;;;;;5095534;28;20118;-86
2022/06/09 03:05:30;;;;;;;16.30;11.10;;;14.00;98.20;;;;;;5094095;28;20031;-87
2022/06/09 03:07:56;;;;;;;21.02;11.80;;;14.10;98.10;;;;;;5113821;27;20039;-87
2022/06/09 03:10:22;;;;;;;20.67;12.40;;;14.10;98.20;;;;;;5095354;28;20375;-86
2022/06/09 03:12:48;;;;;;;21.25;13.35;;;14.10;98.20;;;;;;5093466;28;20131;-86
2022/06/09 03:15:16;;;;;;;20.88;14.15;;;14.10;98.20;;;;;;5110069;28;20020;-86
2022/06/09 03:17:42;;;;;;;17.85;12.98;;;14.10;98.10;;;;;;5111082;27;20035;-87
2022/06/09 03:20:12;;;;;;;25.08;15.02;;;14.20;98.20;;;;;;5084586;28;20037;-87
2022/06/09 03:22:38;;;;;;;24.87;14.10;;;14.20;98.20;;;;;;5108854;27;20466;-87
2022/06/09 03:25:04;;;;;;;22.25;15.23;;;14.20;98.20;;;;;;5090923;28;20285;-86
2022/06/09 03:27:30;;;;;;;27.88;15.60;;;14.20;98.20;;;;;;5090708;28;20020;-87
2022/06/09 03:29:55;;;;;;;29.80;15.75;;;14.20;98.10;;;;;;5111133;28;20046;-86
2022/06/09 03:32:22;;;;;;;28.92;16.23;;;14.20;98.20;;;;;;5089702;28;20117;-86
2022/06/09 03:34:48;;;;;;;28.17;17.23;;;14.20;98.20;;;;;;5085614;28;20023;-87
2022/06/09 03:37:14;;;;;;;27.08;17.50;;;14.30;98.20;;;;;;5091385;28;20494;-86
2022/06/09 03:39:40;;;;;;;32.50;18.33;;;14.30;98.20;;;;;;5091839;28;20032;-87
2022/06/09 03:42:06;;;;;;;24.58;16.67;;;14.30;98.20;;;;;;5092650;28;20035;-87
2022/06/09 03:44:31;;;;;;;33.55;18.63;;;14.40;98.20;;;;;;5111403;28;20031;-86
2022/06/09 03:46:57;;;;;;;30.92;17.98;;;14.40;98.20;;;;;;5109733;28;20040;-86
2022/06/09 03:49:22;;;;;;;30.65;19.15;;;14.40;98.20;;;;;;5098714;28;20035;-86
2022/06/09 03:51:48;;;;;;;30.17;17.73;;;14.40;98.10;;;;;;5097975;27;20019;-87
2022/06/09 03:54:14;;;;;;;33.28;19.27;;;14.50;98.20;;;;;;5094213;28;20019;-87
2022/06/09 03:56:40;;;;;;;31.25;19.52;;;14.50;98.20;;;;;;5084295;28;20425;-87
2022/06/09 03:59:06;;;;;;;34.08;20.55;;;14.50;98.10;;;;;;5086930;28;20032;-87
2022/06/09 04:01:32;;;;;;;34.05;20.33;;;14.50;98.20;;;;;;5092784;28;20080;-87
2022/06/09 04:03:57;;;;;;;31.63;20.67;;;14.50;98.10;;;;;;5092197;28;20534;-87
2022/06/09 04:06:25;;;;;;;37.90;21.38;;;14.60;98.10;;;;;;5090588;27;20035;-87
2022/06/09 04:08:51;;;;;;;31.98;21.65;;;14.50;98.00;;;;;;5088333;28;20395;-86
2022/06/09 04:11:19;;;;;;;30.67;20.85;;;14.60;97.90;;;;;;5080673;28;20063;-87
2022/06/09 04:13:44;;;;;;;32.15;20.58;;;14.60;98.00;;;;;;5073221;28;20039;-87
2022/06/09 04:16:31;;;;;;;34.83;21.13;;;14.60;97.90;;;;;;5073496;28;20122;-86
2022/06/09 04:18:59;;;;;;;35.17;20.90;;;14.70;97.70;;;;;;5066848;28;20102;-86
2022/06/09 04:21:27;;;;;;;35.72;21.10;;;14.70;97.70;;;;;;5069270;28;20032;-87
2022/06/09 04:23:53;;;;;;;37.83;20.95;;;14.70;97.70;;;;;;5074736;28;20028;-87
2022/06/09 04:26:22;;;;;;;33.30;22.15;;;14.80;97.60;;;;;;5069336;28;20039;-86
2022/06/09 04:28:48;;;;;;;35.65;21.55;;;15.00;97.60;;;;;;5067354;28;20031;-86
2022/06/09 04:31:14;;;;;;;35.03;21.85;;;15.00;97.40;;;;;;5070375;28;20108;-85
2022/06/09 04:33:40;;;;;;;29.65;21.58;;;15.00;97.20;;;;;;5066765;28;20107;-87
2022/06/09 04:36:07;;;;;;;32.75;21.67;;;15.10;97.10;;;;;;5081370;28;20135;-88
2022/06/09 04:38:35;;;;;;;31.67;21.05;;;15.20;97.00;;;;;;5081422;28;20514;-87
2022/06/09 04:41:01;;;;;;;33.55;20.63;;;15.30;96.80;;;;;;5065357;28;20051;-87
2022/06/09 04:43:29;;;;;;;32.65;20.35;;;15.50;96.50;;;;;;5072357;28;20025;-87
2022/06/09 04:45:55;;;;;;;29.02;19.63;;;15.50;96.30;;;;;;5090735;28;20468;-87
2022/06/09 04:48:22;;;;;;;26.70;19.95;;;15.50;95.90;;;;;;5082989;28;20023;-88
2022/06/09 04:50:52;;;;;;;28.52;19.73;;;15.50;95.80;;;;;;5100639;28;20080;-86
2022/06/09 04:53:26;;;;;;;31.60;19.80;;;15.50;95.80;;;;;;5063134;28;20491;-87
2022/06/09 04:55:52;;;;;;;30.30;18.90;;;15.50;95.80;;;;;;5071747;28;20368;-87
2022/06/09 04:58:20;;;;;;;25.42;18.27;;;15.50;95.60;;;;;;5072408;28;20081;-88
2022/06/09 05:00:46;;;;;;;31.52;19.30;;;15.60;95.50;;;;;;5088306;28;20023;-88
2022/06/09 05:03:14;;;;;;;31.30;18.80;;;15.60;95.20;;;;;;5081882;28;20475;-87
2022/06/09 05:05:49;;;;;;;28.38;18.98;;;15.60;95.30;;;;;;5075859;28;20149;-88
2022/06/09 05:08:33;;;;;;;28.73;18.48;;;15.60;95.20;;;;;;5079003;28;20079;-88
2022/06/09 05:10:58;;;;;;;29.70;18.08;;;15.60;95.30;;;;;;5071773;28;20028;-88
2022/06/09 05:13:24;;;;;;;28.65;17.83;;;15.60;95.10;;;;;;5086323;28;20103;-87
2022/06/09 05:15:55;;;;;;;27.08;18.20;;;15.60;94.90;;;;;;5090936;28;20012;-87
2022/06/09 05:18:22;;;;;;;;;;;15.60;94.90;;;;;;5093934;28;20032;-88
2022/06/09 05:20:55;;;;;;;28.58;16.83;;;15.50;94.80;;;;;;5081903;28;19957;-87
2022/06/09 05:23:23;;;;;;;24.00;16.60;;;15.50;94.80;;;;;;5089739;28;20699;-87
2022/06/09 05:25:50;;;;;;;23.75;16.00;;;15.40;94.80;;;;;;5084602;28;20034;-87
2022/06/09 05:28:28;;;;;;;27.63;18.27;;;15.50;94.90;;;;;;5083566;28;20463;-88
2022/06/09 05:30:55;;;;;;;25.92;17.40;;;15.40;94.90;;;;;;5083377;28;20387;-87
2022/06/09 05:33:21;;;;;;;25.98;18.08;;;15.40;95.10;;;;;;5106489;28;20055;-88
2022/06/09 05:35:47;;;;;;;25.05;17.10;;;15.50;95.10;;;;;;5082156;28;20028;-86
2022/06/09 05:46:33;;;;;;;25.20;16.52;;;15.80;94.70;;;;;;5091902;28;20031;-87
2022/06/09 05:49:01;;;;;;;22.70;16.00;;;15.70;94.00;;;;;;5092255;28;20529;-87
2022/06/09 05:51:53;;;;;;;23.23;15.25;;;15.70;93.90;;;;;;5076578;28;20491;-87
2022/06/09 05:54:20;;;;;;;22.00;14.30;;;15.70;93.30;;;;;;5092804;28;20497;-86
2022/06/09 05:56:53;;;;;;;22.02;13.38;;;15.70;93.30;;;;;;5090032;28;20020;-86
2022/06/09 05:59:18;;;;;;;23.00;14.38;;;15.70;92.90;;;;;;5094328;28;20024;-86
2022/06/09 06:01:44;;;;;;;21.13;13.95;;;15.80;92.90;;;;;;5093290;28;20024;-87
2022/06/09 06:04:10;;;;;;;24.63;13.80;;;15.80;92.70;;;;;;5080298;28;20029;-87
2022/06/09 06:06:36;;;;;;;21.33;13.35;;;15.90;92.40;;;;;;5093370;28;20502;-87
2022/06/09 06:09:07;;;;;;;21.08;13.70;;;15.80;92.10;;;;;;5093789;28;20034;-87
2022/06/09 06:11:39;;;;;;;25.98;13.32;;;15.80;92.10;;;;;;5085329;28;20503;-87
2022/06/09 06:14:08;;;;;;;24.92;14.20;;;15.80;92.20;;;;;;5094187;28;20405;-87
2022/06/09 06:16:34;;;;;;;23.65;14.63;;;15.60;92.50;;;;;;5101607;28;20032;-86
2022/06/09 06:19:00;;;;;;;23.33;14.73;;;15.70;92.80;;;;;;5092742;28;20032;-87
2022/06/09 06:21:26;;;;;;;26.20;15.98;;;15.60;92.80;;;;;;5096653;28;20498;-87
2022/06/09 06:23:55;;;;;;;24.73;14.63;;;15.60;92.80;;;;;;5096168;28;20498;-87
2022/06/09 06:26:23;;;;;;;25.13;13.00;;;15.60;92.60;;;;;;5094765;28;20031;-87
2022/06/09 06:28:50;;;;;;;21.67;13.45;;;15.70;92.70;;;;;;5086957;28;20008;-87
2022/06/09 06:31:16;;;;;;;23.88;14.63;;;15.60;92.70;;;;;;5088019;28;20495;-87
2022/06/09 06:33:41;;;;;;;22.92;14.77;;;15.50;92.40;;;;;;5095202;28;20019;-87
2022/06/09 06:36:08;;;;;;;23.42;14.55;;;15.50;92.70;;;;;;5096403;28;20039;-87
2022/06/09 06:38:33;;;;;;;23.95;14.55;;;15.50;93.00;;;;;;5094924;27;20027;-87
2022/06/09 06:41:07;;;;;;;23.48;14.55;;;15.60;93.10;;;;;;5080596;28;20032;-86
2022/06/09 06:43:40;;;;;;;24.75;14.25;;;15.60;93.10;;;;;;5099000;28;20475;-87
2022/06/09 06:46:06;;;;;;;23.08;13.60;;;15.60;92.50;;;;;;5087062;28;20507;-87
2022/06/09 06:48:35;;;;;;;22.98;13.20;;;15.50;92.30;;;;;;5091681;28;20023;-86
2022/06/09 06:51:01;;;;;;;20.17;13.60;;;15.60;91.90;;;;;;5114228;27;20030;-87
2022/06/09 06:53:27;;;;;;;25.10;13.43;;;15.80;91.70;;;;;;5080467;28;20062;-87
2022/06/09 06:55:54;;;;;;;21.05;12.80;;;15.80;91.60;;;;;;5076673;28;20052;-87
2022/06/09 06:58:20;;;;;;;17.83;12.38;;;15.80;91.10;;;;;;5083244;27;20027;-88
2022/06/09 07:00:48;;;;;;;22.75;13.30;;;16.00;91.10;;;;;;5091721;28;20385;-87
2022/06/09 07:03:14;;;;;;;20.73;12.00;;;16.00;91.10;;;;;;5093960;28;20474;-87
2022/06/09 07:05:39;;;;;;;18.27;12.00;;;16.00;90.90;;;;;;5093024;27;20016;-87
2022/06/09 07:08:07;;;;;;;26.15;12.90;;;16.00;90.70;;;;;;5078172;28;20043;-87
2022/06/09 07:10:33;;;;;;;19.60;11.93;;;16.00;90.60;;;;;;5105725;28;20016;-87
2022/06/09 07:12:59;;;;;;;18.98;11.77;;;16.00;90.10;;;;;;5093618;28;20105;-87
2022/06/09 07:15:26;;;;;;;18.60;11.90;;;16.10;90.30;;;;;;5092723;27;20033;-88
2022/06/09 07:17:51;;;;;;;21.92;11.43;;;16.00;90.00;;;;;;5087391;28;20026;-87
2022/06/09 07:20:18;;;;;;;18.40;10.95;;;16.00;89.80;;;;;;5094201;28;20023;-88
2022/06/09 07:22:46;;;;;;;18.63;9.80;;;16.10;89.50;;;;;;5083718;27;20023;-87
2022/06/09 07:25:23;;;;;;;15.20;9.68;;;16.20;89.50;;;;;;5109065;27;20027;-87
2022/06/09 07:27:51;;;;;;;15.65;9.40;;;16.40;88.90;;;;;;5092511;28;20073;-87
2022/06/09 07:30:17;;;;;;;14.32;9.75;;;16.70;89.20;;;;;;5096459;28;20039;-87
2022/06/09 07:32:43;;;;;;;13.55;9.10;;;16.80;87.70;;;;;;5096696;28;20028;-87
2022/06/09 07:35:13;;;;;;;13.25;8.82;;;16.80;87.00;;;;;;5104630;28;20034;-88
2022/06/09 07:37:39;;;;;;;13.45;7.95;;;16.90;87.40;;;;;;5090599;28;20525;-88
2022/06/09 07:40:05;;;;;;;13.35;7.70;;;17.10;86.70;;;;;;5094339;28;20032;-87
2022/06/09 07:42:31;;;;;;;13.07;7.10;;;17.10;85.40;;;;;;5112910;28;20471;-88
2022/06/09 07:44:57;;;;;;;9.45;6.55;;;17.20;84.60;;;;;;5111546;28;20613;-88
2022/06/09 07:47:23;;;;;;;13.25;6.60;;;17.00;84.50;;;;;;5080417;28;20031;-87
2022/06/09 07:49:49;;;;;;;13.95;7.38;;;17.00;84.70;;;;;;5087293;28;20020;-87
2022/06/09 07:52:18;;;;;;;11.40;6.53;;;17.00;85.10;;;;;;5088753;28;20058;-87
2022/06/09 07:54:44;;;;;;;12.15;5.85;;;17.00;85.30;;;;;;5085917;28;20028;-87
2022/06/09 07:57:11;;;;;;;8.65;5.03;;;17.00;84.70;;;;;;5093877;28;20543;-87
2022/06/09 07:59:37;;;;;;;9.60;4.80;;;17.00;83.90;;;;;;5098458;28;20475;-87
2022/06/09 08:02:10;;;;;;;8.68;3.80;;;17.00;83.30;;;;;;5109647;28;20038;-86
2022/06/09 08:04:35;;;;;;;8.82;4.28;;;17.00;83.00;;;;;;5094120;28;20028;-87
2022/06/09 08:07:02;;;;;;;6.70;4.00;;;17.00;83.40;;;;;;5093206;28;20020;-87
2022/06/09 08:09:28;;;;;;;7.03;4.07;;;16.90;83.10;;;;;;5094998;28;20019;-87
2022/06/09 08:11:54;;;;;;;10.38;4.57;;;16.90;83.80;;;;;;5110594;28;20048;-87
2022/06/09 08:14:19;;;;;;;8.13;3.90;;;16.90;83.40;;;;;;5073549;28;20506;-87
2022/06/09 08:16:48;;;;;;;7.55;4.03;;;17.00;83.80;;;;;;5073382;28;20042;-87
2022/06/09 08:19:14;;;;;;;7.75;4.15;;;17.30;83.20;;;;;;5073625;28;20024;-88
2022/06/09 08:21:39;;;;;;;8.70;4.10;;;17.40;82.70;;;;;;5082394;28;20031;-87
2022/06/09 08:24:09;;;;;;;8.00;3.83;;;17.30;82.40;;;;;;5067239;28;20029;-87
2022/06/09 08:26:34;;;;;;;5.70;3.75;;;17.30;82.40;;;;;;5083690;28;20032;-87
2022/06/09 08:29:20;;;;;;;8.50;4.53;;;17.00;82.20;;;;;;5070082;28;20024;-88
2022/06/09 08:31:46;;;;;;;11.20;4.70;;;16.80;82.70;;;;;;5079772;28;20024;-87
2022/06/09 08:34:11;;;;;;;9.05;4.70;;;16.80;82.50;;;;;;5073577;28;20074;-86
2022/06/09 08:36:38;;;;;;;9.45;4.60;;;16.70;83.70;;;;;;5071855;28;20413;-87
2022/06/09 08:39:04;;;;;;;11.18;4.97;;;16.70;84.40;;;;;;5056382;28;20040;-86
2022/06/09 08:41:41;;;;;;;10.32;5.25;;;16.60;84.40;;;;;;5069689;28;20024;-88
2022/06/09 08:44:29;;;;;;;10.40;5.82;;;16.60;84.30;;;;;;5064548;28;20487;-87
2022/06/09 08:47:29;;;;;;;9.65;6.10;;;16.70;84.50;;;;;;5073561;28;20387;-87
2022/06/09 08:50:01;;;;;;;12.98;7.05;;;16.80;84.30;;;;;;5072242;28;20475;-87
2022/06/09 08:52:52;;;;;;;15.98;6.32;;;16.70;84.60;;;;;;5059982;28;20031;-87
2022/06/09 08:55:32;;;;;;;;;;;16.70;84.40;;;;;;5069199;28;20020;-87
2022/06/09 08:58:09;;;;;;;14.38;6.68;;;16.80;84.20;;;;;;5061243;28;19912;-87
2022/06/09 09:00:42;;;;;;;12.00;6.22;;;17.00;84.10;;;;;;5073453;28;20510;-87
2022/06/09 09:03:20;;;;;;;8.65;5.57;;;17.30;83.40;;;;;;5072670;28;20474;-87
2022/06/09 09:06:01;;;;;;;13.18;6.18;;;17.60;82.60;;;;;;5069602;28;20029;-87
2022/06/09 09:08:29;;;;;;;;;;;18.10;82.00;;;;;;5080430;28;20084;-87
2022/06/09 09:11:17;;;;;;;10.23;5.28;;;18.10;80.40;;;;;;5061267;28;19912;-87
2022/06/09 09:14:00;;;;;;;8.73;5.38;;;18.00;80.20;;;;;;5090681;28;20079;-87
2022/06/09 09:16:54;;;;;;;11.82;5.07;;;18.10;80.60;;;;;;5094941;28;20036;-87
2022/06/09 09:19:45;;;;;;;8.52;4.50;;;17.70;79.60;;;;;;5091916;28;20515;-87
2022/06/09 09:22:38;;;;;;;9.07;4.38;;;17.50;80.30;;;;;;5081066;28;20062;-87
2022/06/09 09:25:18;;;;;;;12.07;4.80;;;17.40;81.20;;;;;;5109575;28;20040;-87
2022/06/09 09:28:08;;;;;;;7.72;4.57;;;17.40;80.70;;;;;;5090841;28;20035;-86
2022/06/09 09:30:40;;;;;;;8.10;4.70;;;17.30;81.20;;;;;;5071779;28;20059;-87
2022/06/09 09:33:17;;;;;;;9.32;4.80;;;17.40;80.70;;;;;;5089015;28;20119;-87
2022/06/09 09:35:45;;;;;;;9.65;5.30;;;17.40;80.50;;;;;;5092398;28;20024;-87
2022/06/09 09:38:16;;;;;;;10.63;5.10;;;17.50;81.40;;;;;;5093539;28;20028;-87
2022/06/09 09:40:46;;;;;;;8.43;4.50;;;17.50;81.80;;;;;;5089710;28;20028;-86
2022/06/09 09:43:21;;;;;;;6.83;4.17;;;17.50;81.60;;;;;;5087466;28;20502;-88
2022/06/09 09:45:50;;;;;;;13.43;4.60;;;17.30;81.20;;;;;;5105410;28;20043;-87
2022/06/09 09:48:19;;;;;;;8.35;4.78;;;17.50;81.60;;;;;;5090810;28;20031;-88
2022/06/09 09:50:58;;;;;;;11.93;4.72;;;17.40;80.30;;;;;;5088019;28;20482;-87
2022/06/09 09:53:34;;;;;;;8.32;4.25;;;17.30;80.70;;;;;;5080697;28;20020;-87
2022/06/09 09:56:34;;;;;;;11.13;4.80;;;17.60;80.50;;;;;;5095059;28;20034;-87
2022/06/09 09:59:17;;;;;;;10.83;4.30;;;18.00;80.30;;;;;;5106098;28;20031;-88
2022/06/09 10:10:07;;;;;;;10.45;4.63;;;18.80;77.30;;;;;;5109186;28;20082;-88
2022/06/09 10:12:34;;;;;;;9.77;4.28;;;19.00;75.90;;;;;;5074333;28;20066;-84
2022/06/09 10:15:10;;;;;;;7.18;3.88;;;19.00;75.00;;;;;;5072990;28;20024;-85
2022/06/09 10:17:55;;;;;;;7.15;4.35;;;19.30;75.00;;;;;;5064468;28;20032;-85
2022/06/09 10:20:38;;;;;;;7.57;4.13;;;19.30;73.40;;;;;;5082550;28;20407;-85
2022/06/09 10:23:46;;;;;;;6.50;3.92;;;19.50;74.30;;;;;;5065849;28;20391;-85
2022/06/09 10:26:19;;;;;;;8.23;3.83;;;19.70;74.40;;;;;;5065422;28;20043;-85
2022/06/09 10:29:01;;;;;;;8.10;3.80;;;19.50;74.00;;;;;;5079600;28;20033;-86
2022/06/09 10:31:36;;;;;;;8.07;3.75;;;19.40;73.70;;;;;;5091038;28;20502;-85
2022/06/09 10:34:29;;;;;;;7.18;3.67;;;19.00;73.50;;;;;;5068577;28;20028;-84
2022/06/09 10:37:07;;;;;;;7.53;3.97;;;18.80;74.10;;;;;;5074867;28;20082;-84
2022/06/09 10:39:55;;;;;;;11.23;4.80;;;18.70;74.90;;;;;;5071135;28;20032;-84
2022/06/09 10:42:29;;;;;;;8.95;4.35;;;18.70;74.20;;;;;;5078950;28;20039;-85
2022/06/09 10:45:32;;;;;;;9.90;4.57;;;18.80;74.90;;;;;;5068823;28;20040;-85
2022/06/09 10:56:50;;;;;;;10.95;5.10;;;18.90;74.20;;;;;;5088569;28;20035;-88
2022/06/09 10:59:34;;;;;;;12.20;5.88;;;19.00;74.40;;;;;;5071809;28;20038;-87
2022/06/09 11:02:02;;;;;;;7.88;4.07;;;19.30;74.40;;;;;;5086222;28;20032;-88
2022/06/09 11:04:34;;;;;;;9.63;4.88;;;19.30;72.70;;;;;;5075591;28;20028;-85
2022/06/09 11:07:33;;;;;;;8.10;4.35;;;19.20;73.40;;;;;;5079694;28;20024;-85
2022/06/09 11:10:01;;;;;;;8.40;4.78;;;19.20;73.80;;;;;;5069597;28;20032;-85
2022/06/09 11:12:50;;;;;;;9.82;5.15;;;19.70;73.10;;;;;;5082817;28;20047;-85
2022/06/09 11:15:34;;;;;;;9.32;5.53;;;19.70;72.40;;;;;;5089902;28;20063;-85
2022/06/09 11:18:25;;;;;;;8.82;4.93;;;19.70;72.40;;;;;;5080958;28;20016;-85
2022/06/09 11:21:07;;;;;;;8.40;5.07;;;19.90;70.90;;;;;;5084977;28;20036;-86
2022/06/09 11:23:47;;;;;;;7.40;5.00;;;20.30;70.40;;;;;;5095944;28;20483;-85
2022/06/09 11:26:25;;;;;;;6.43;4.22;;;21.50;69.60;;;;;;5088596;28;20028;-85
2022/06/09 11:29:26;;;;;;;9.52;4.57;;;21.20;68.00;;;;;;5086828;28;20592;-85
2022/06/09 11:32:30;;;;;;;8.75;4.40;;;21.60;66.80;;;;;;5089542;28;20479;-85
2022/06/09 11:35:38;;;;;;;11.50;4.40;;;21.70;64.80;;;;;;5084087;28;20032;-85
2022/06/09 11:38:34;;;;;;;7.00;4.38;;;21.90;65.20;;;;;;5079662;28;20558;-85
2022/06/09 11:40:59;;;;;;;7.32;4.32;;;21.60;66.10;;;;;;5082429;28;20032;-85
2022/06/09 11:43:49;;;;;;;6.63;4.25;;;22.00;65.80;;;;;;5083573;28;20108;-85
2022/06/09 11:46:23;;;;;;;6.95;4.28;;;21.20;66.40;;;;;;5079968;28;20166;-85
2022/06/09 11:48:52;;;;;;;7.35;4.03;;;21.50;66.30;;;;;;5081569;28;20039;-84
2022/06/09 11:51:20;;;;;;;6.82;4.57;;;21.90;64.00;;;;;;5086727;28;20040;-85
2022/06/09 11:54:01;;;;;;;7.05;4.10;;;22.00;64.40;;;;;;5085574;28;20029;-85
2022/06/09 11:56:40;;;;;;;5.90;3.33;;;22.40;62.10;;;;;;5081554;28;20032;-84
2022/06/09 11:59:12;;;;;;;9.05;3.72;;;22.50;62.20;;;;;;5086693;28;20372;-85
2022/06/09 12:01:37;;;;;;;7.13;3.65;;;21.70;62.60;;;;;;5080484;28;20119;-85
2022/06/09 12:04:10;;;;;;;5.55;3.17;;;21.30;63.50;;;;;;5084068;28;20099;-85
2022/06/09 12:07:13;;;;;;;6.45;4.05;;;21.30;64.70;;;;;;5095594;28;20109;-86
2022/06/09 12:09:44;;;;;;;7.50;4.05;;;21.90;63.60;;;;;;5086612;28;20024;-85
2022/06/09 12:12:29;;;;;;;8.70;4.90;;;22.00;63.70;;;;;;5093631;28;20048;-85
2022/06/09 12:15:12;;;;;;;8.93;4.85;;;22.90;61.10;;;;;;5080970;28;20040;-85
2022/06/09 12:17:53;;;;;;;8.93;4.30;;;23.10;60.20;;;;;;5087826;28;20494;-85
2022/06/09 12:20:40;;;;;;;8.00;3.63;;;22.30;63.60;;;;;;5087652;28;20391;-85
2022/06/09 12:23:36;;;;;;;7.47;4.18;;;22.00;63.40;;;;;;5082991;28;20505;-85
2022/06/09 12:26:16;;;;;;;8.15;4.53;;;21.50;64.50;;;;;;5085801;28;20038;-85
2022/06/09 12:28:43;;;;;;;7.90;4.45;;;21.30;65.80;;;;;;5080026;28;20028;-85
2022/06/09 12:31:15;;;;;;;6.75;4.60;;;20.90;66.80;;;;;;5083724;28;20020;-85
2022/06/09 12:33:57;;;;;;;9.13;5.82;;;21.00;67.30;;;;;;5082617;28;20087;-85
2022/06/09 12:36:38;;;;;;;8.95;5.40;;;20.90;66.90;;;;;;5086654;28;20105;-85
2022/06/09 12:39:24;;;;;;;12.23;5.10;;;21.00;67.00;;;;;;5085899;28;20028;-86
2022/06/09 12:42:05;;;;;;;7.75;4.95;;;22.00;64.20;;;;;;5087261;28;20637;-85
2022/06/09 12:44:42;;;;;;;8.77;5.18;;;22.70;61.40;;;;;;5080490;28;20119;-85
2022/06/09 12:47:18;;;;;;;7.57;4.95;;;23.30;59.20;;;;;;5083044;28;20043;-85
2022/06/09 12:49:46;;;;;;;7.88;4.65;;;23.60;60.40;;;;;;5077991;28;20431;-86
2022/06/09 12:52:40;;;;;;;5.05;3.58;;;23.20;58.90;;;;;;5082445;28;20020;-85
2022/06/09 12:55:14;;;;;;;6.35;3.88;;;22.30;59.90;;;;;;5083501;28;20025;-85
2022/06/09 12:57:57;;;;;;;5.53;3.20;;;22.30;59.60;;;;;;5082049;28;20035;-86
2022/06/09 13:00:29;;;;;;;9.45;3.80;;;22.50;59.20;;;;;;5085656;28;20036;-85
2022/06/09 13:02:55;;;;;;;7.32;3.67;;;21.70;61.50;;;;;;5077017;28;20031;-85
2022/06/09 13:05:47;;;;;;;5.72;3.22;;;21.50;62.10;;;;;;5087966;28;20028;-85
2022/06/09 13:08:16;;;;;;;4.90;3.13;;;21.30;63.00;;;;;;5078637;28;20123;-84
2022/06/09 13:10:46;;;;;;;6.03;4.00;;;21.00;63.30;;;;;;5098076;28;20419;-85
2022/06/09 13:13:22;;;;;;;7.47;3.70;;;21.40;63.20;;;;;;5074129;28;20028;-85
2022/06/09 13:15:54;;;;;;;5.57;3.55;;;22.00;61.90;;;;;;5064404;28;20036;-85
2022/06/09 13:18:25;;;;;;;6.50;3.80;;;22.90;60.40;;;;;;5072242;28;20036;-84
2022/06/09 13:21:18;;;;;;;6.35;3.58;;;23.00;60.20;;;;;;5069309;28;20039;-85
2022/06/09 13:23:46;;;;;;;6.72;2.70;;;22.20;61.90;;;;;;5064933;28;20027;-85
2022/06/09 13:26:19;;;;;;;3.38;1.90;;;22.00;60.20;;;;;;5089945;28;20028;-85
2022/06/09 13:28:48;;;;;;;2.58;1.80;;;22.10;58.50;;;;;;5084493;28;20032;-85
2022/06/09 13:31:37;;;;;;;3.28;1.83;;;23.10;56.10;;;;;;5070759;28;20115;-85
2022/06/09 13:34:26;;;;;;;4.88;1.73;;;23.10;56.00;;;;;;5071645;28;20028;-85